sensor_id;sensor_type;location;lat;lon;timestamp;P1;durP1;ratioP1;P2;durP2;ratioP2
49728;SDS011;35617;50.714;7.114;2022-10-16T00:01:25;4.85;;;1.45;;
49728;SDS011;35617;50.714;7.114;2022-10-16T00:03:53;4.10;;;1.60;;
49728;SDS011;35617;50.714;7.114;2022-10-16T00:06:20;3.78;;;1.80;;
49728;SDS011;35617;50.714;7.114;2022-10-16T00:08:46;4.28;;;1.52;;
49728;SDS011;35617;50.714;7.114;2022-10-16T00:13:41;3.45;;;1.38;;
49728;SDS011;35617;50.714;7.114;2022-10-16T00:16:08;4.38;;;1.67;;
49728;SDS011;35617;50.714;7.114;2022-10-16T00:18:35;4.45;;;1.98;;
49728;SDS011;35617;50.714;7.114;2022-10-16T00:21:07;4.68;;;1.55;;
49728;SDS011;35617;50.714;7.114;2022-10-16T00:23:37;4.13;;;1.80;;
49728;SDS011;35617;50.714;7.114;2022-10-16T00:26:04;5.10;;;1.67;;
49728;SDS011;35617;50.714;7.114;2022-10-16T00:28:32;3.97;;;1.75;;
49728;SDS011;35617;50.714;7.114;2022-10-16T00:30:58;3.50;;;1.42;;
49728;SDS011;35617;50.714;7.114;2022-10-16T00:33:27;4.68;;;1.50;;
49728;SDS011;35617;50.714;7.114;2022-10-16T00:35:53;4.93;;;1.63;;
49728;SDS011;35617;50.714;7.114;2022-10-16T00:38:18;7.43;;;1.65;;
49728;SDS011;35617;50.714;7.114;2022-10-16T00:40:44;4.20;;;1.90;;
49728;SDS011;35617;50.714;7.114;2022-10-16T00:43:53;8.98;;;1.95;;
49728;SDS011;35617;50.714;7.114;2022-10-16T00:46:04;3.78;;;1.52;;
49728;SDS011;35617;50.714;7.114;2022-10-16T00:48:36;5.57;;;1.95;;
49728;SDS011;35617;50.714;7.114;2022-10-16T00:51:02;3.53;;;1.40;;
49728;SDS011;35617;50.714;7.114;2022-10-16T00:53:28;3.70;;;1.50;;
49728;SDS011;35617;50.714;7.114;2022-10-16T00:55:54;5.32;;;1.70;;
49728;SDS011;35617;50.714;7.114;2022-10-16T00:58:20;3.65;;;1.50;;
49728;SDS011;35617;50.714;7.114;2022-10-16T01:00:46;4.20;;;1.67;;
49728;SDS011;35617;50.714;7.114;2022-10-16T01:05:58;5.55;;;1.80;;
49728;SDS011;35617;50.714;7.114;2022-10-16T01:11:45;4.95;;;1.60;;
49728;SDS011;35617;50.714;7.114;2022-10-16T01:14:45;6.07;;;1.88;;
49728;SDS011;35617;50.714;7.114;2022-10-16T01:17:18;4.38;;;1.90;;
49728;SDS011;35617;50.714;7.114;2022-10-16T01:20:11;5.28;;;2.30;;
49728;SDS011;35617;50.714;7.114;2022-10-16T01:25:30;4.05;;;1.77;;
49728;SDS011;35617;50.714;7.114;2022-10-16T01:28:04;7.07;;;2.00;;
49728;SDS011;35617;50.714;7.114;2022-10-16T01:30:33;4.85;;;1.92;;
49728;SDS011;35617;50.714;7.114;2022-10-16T01:33:03;5.50;;;1.98;;
49728;SDS011;35617;50.714;7.114;2022-10-16T01:35:47;6.28;;;2.08;;
49728;SDS011;35617;50.714;7.114;2022-10-16T01:40:59;4.68;;;1.75;;
49728;SDS011;35617;50.714;7.114;2022-10-16T01:43:32;5.72;;;2.00;;
49728;SDS011;35617;50.714;7.114;2022-10-16T01:46:06;6.43;;;1.70;;
49728;SDS011;35617;50.714;7.114;2022-10-16T01:48:33;5.63;;;1.58;;
49728;SDS011;35617;50.714;7.114;2022-10-16T01:51:04;3.60;;;1.60;;
49728;SDS011;35617;50.714;7.114;2022-10-16T01:53:33;4.22;;;1.77;;
49728;SDS011;35617;50.714;7.114;2022-10-16T01:55:59;4.32;;;1.60;;
49728;SDS011;35617;50.714;7.114;2022-10-16T01:58:26;5.15;;;1.73;;
49728;SDS011;35617;50.714;7.114;2022-10-16T02:00:55;5.05;;;1.67;;
49728;SDS011;35617;50.714;7.114;2022-10-16T02:03:21;4.43;;;1.60;;
49728;SDS011;35617;50.714;7.114;2022-10-16T02:05:49;6.03;;;1.95;;
49728;SDS011;35617;50.714;7.114;2022-10-16T02:08:20;5.97;;;1.60;;
49728;SDS011;35617;50.714;7.114;2022-10-16T02:10:48;4.40;;;1.52;;
49728;SDS011;35617;50.714;7.114;2022-10-16T02:13:50;4.40;;;1.33;;
49728;SDS011;35617;50.714;7.114;2022-10-16T02:16:10;4.45;;;1.65;;
49728;SDS011;35617;50.714;7.114;2022-10-16T02:18:37;3.88;;;1.30;;
49728;SDS011;35617;50.714;7.114;2022-10-16T02:26:23;4.82;;;1.40;;
49728;SDS011;35617;50.714;7.114;2022-10-16T02:28:55;3.17;;;1.30;;
49728;SDS011;35617;50.714;7.114;2022-10-16T02:31:27;4.65;;;1.30;;
49728;SDS011;35617;50.714;7.114;2022-10-16T02:33:56;5.30;;;1.27;;
49728;SDS011;35617;50.714;7.114;2022-10-16T02:36:24;5.97;;;1.40;;
49728;SDS011;35617;50.714;7.114;2022-10-16T02:38:51;3.88;;;1.30;;
49728;SDS011;35617;50.714;7.114;2022-10-16T02:41:17;5.60;;;1.23;;
49728;SDS011;35617;50.714;7.114;2022-10-16T02:43:45;4.60;;;1.30;;
49728;SDS011;35617;50.714;7.114;2022-10-16T02:46:11;3.30;;;1.23;;
49728;SDS011;35617;50.714;7.114;2022-10-16T02:48:36;4.43;;;1.50;;
49728;SDS011;35617;50.714;7.114;2022-10-16T02:51:02;3.97;;;1.30;;
49728;SDS011;35617;50.714;7.114;2022-10-16T02:53:27;6.57;;;1.85;;
49728;SDS011;35617;50.714;7.114;2022-10-16T02:55:53;6.07;;;1.90;;
49728;SDS011;35617;50.714;7.114;2022-10-16T02:58:18;5.20;;;1.42;;
49728;SDS011;35617;50.714;7.114;2022-10-16T03:00:44;3.20;;;1.30;;
49728;SDS011;35617;50.714;7.114;2022-10-16T03:03:11;5.25;;;1.45;;
49728;SDS011;35617;50.714;7.114;2022-10-16T03:05:36;4.28;;;1.48;;
49728;SDS011;35617;50.714;7.114;2022-10-16T03:08:02;4.32;;;1.42;;
49728;SDS011;35617;50.714;7.114;2022-10-16T03:10:27;3.40;;;1.35;;
49728;SDS011;35617;50.714;7.114;2022-10-16T03:12:53;3.80;;;1.40;;
49728;SDS011;35617;50.714;7.114;2022-10-16T03:15:18;5.18;;;1.67;;
49728;SDS011;35617;50.714;7.114;2022-10-16T03:17:44;6.10;;;1.52;;
49728;SDS011;35617;50.714;7.114;2022-10-16T03:20:10;4.38;;;1.58;;
49728;SDS011;35617;50.714;7.114;2022-10-16T03:22:35;6.00;;;1.60;;
49728;SDS011;35617;50.714;7.114;2022-10-16T03:25:01;5.35;;;1.50;;
49728;SDS011;35617;50.714;7.114;2022-10-16T03:27:27;6.13;;;1.70;;
49728;SDS011;35617;50.714;7.114;2022-10-16T03:29:52;4.30;;;1.70;;
49728;SDS011;35617;50.714;7.114;2022-10-16T03:32:18;5.28;;;1.40;;
49728;SDS011;35617;50.714;7.114;2022-10-16T03:34:45;4.07;;;1.50;;
49728;SDS011;35617;50.714;7.114;2022-10-16T03:37:10;3.78;;;1.40;;
49728;SDS011;35617;50.714;7.114;2022-10-16T03:39:36;6.00;;;1.80;;
49728;SDS011;35617;50.714;7.114;2022-10-16T03:42:01;5.85;;;1.50;;
49728;SDS011;35617;50.714;7.114;2022-10-16T03:44:27;4.40;;;1.60;;
49728;SDS011;35617;50.714;7.114;2022-10-16T03:46:53;3.97;;;1.40;;
49728;SDS011;35617;50.714;7.114;2022-10-16T03:49:18;4.63;;;1.30;;
49728;SDS011;35617;50.714;7.114;2022-10-16T03:51:44;5.63;;;1.30;;
49728;SDS011;35617;50.714;7.114;2022-10-16T03:54:09;5.63;;;1.65;;
49728;SDS011;35617;50.714;7.114;2022-10-16T03:56:35;3.38;;;1.10;;
49728;SDS011;35617;50.714;7.114;2022-10-16T03:59:01;3.50;;;0.95;;
49728;SDS011;35617;50.714;7.114;2022-10-16T04:01:26;3.30;;;1.10;;
49728;SDS011;35617;50.714;7.114;2022-10-16T04:03:52;3.95;;;1.13;;
49728;SDS011;35617;50.714;7.114;2022-10-16T04:06:18;3.20;;;0.93;;
49728;SDS011;35617;50.714;7.114;2022-10-16T04:08:43;4.80;;;1.15;;
49728;SDS011;35617;50.714;7.114;2022-10-16T04:11:09;4.80;;;1.10;;
49728;SDS011;35617;50.714;7.114;2022-10-16T04:13:35;4.15;;;1.30;;
49728;SDS011;35617;50.714;7.114;2022-10-16T04:16:00;3.88;;;1.13;;
49728;SDS011;35617;50.714;7.114;2022-10-16T04:18:26;3.80;;;1.20;;
49728;SDS011;35617;50.714;7.114;2022-10-16T04:20:52;5.15;;;1.20;;
49728;SDS011;35617;50.714;7.114;2022-10-16T04:23:18;3.70;;;1.40;;
49728;SDS011;35617;50.714;7.114;2022-10-16T04:25:44;4.00;;;1.38;;
49728;SDS011;35617;50.714;7.114;2022-10-16T04:28:09;4.45;;;1.30;;
49728;SDS011;35617;50.714;7.114;2022-10-16T04:30:37;3.50;;;1.40;;
49728;SDS011;35617;50.714;7.114;2022-10-16T04:33:03;3.78;;;1.33;;
49728;SDS011;35617;50.714;7.114;2022-10-16T04:35:29;3.97;;;1.30;;
49728;SDS011;35617;50.714;7.114;2022-10-16T04:37:56;3.88;;;1.45;;
49728;SDS011;35617;50.714;7.114;2022-10-16T04:40:22;3.90;;;1.80;;
49728;SDS011;35617;50.714;7.114;2022-10-16T04:42:48;6.43;;;1.55;;
49728;SDS011;35617;50.714;7.114;2022-10-16T04:45:14;3.70;;;1.58;;
49728;SDS011;35617;50.714;7.114;2022-10-16T04:47:39;5.55;;;1.50;;
49728;SDS011;35617;50.714;7.114;2022-10-16T04:50:05;4.85;;;1.70;;
49728;SDS011;35617;50.714;7.114;2022-10-16T04:52:31;4.40;;;1.60;;
49728;SDS011;35617;50.714;7.114;2022-10-16T04:54:57;3.42;;;1.50;;
49728;SDS011;35617;50.714;7.114;2022-10-16T04:57:26;3.47;;;1.48;;
49728;SDS011;35617;50.714;7.114;2022-10-16T04:59:52;4.85;;;1.75;;
49728;SDS011;35617;50.714;7.114;2022-10-16T05:02:17;4.95;;;2.00;;
49728;SDS011;35617;50.714;7.114;2022-10-16T05:04:43;4.80;;;1.65;;
49728;SDS011;35617;50.714;7.114;2022-10-16T05:07:09;3.85;;;1.70;;
49728;SDS011;35617;50.714;7.114;2022-10-16T05:09:34;4.13;;;1.88;;
49728;SDS011;35617;50.714;7.114;2022-10-16T05:12:00;5.07;;;1.58;;
49728;SDS011;35617;50.714;7.114;2022-10-16T05:14:25;4.53;;;1.70;;
49728;SDS011;35617;50.714;7.114;2022-10-16T05:16:51;3.72;;;1.50;;
49728;SDS011;35617;50.714;7.114;2022-10-16T05:19:17;6.78;;;1.73;;
49728;SDS011;35617;50.714;7.114;2022-10-16T05:21:42;4.05;;;1.77;;
49728;SDS011;35617;50.714;7.114;2022-10-16T05:24:08;4.43;;;1.60;;
49728;SDS011;35617;50.714;7.114;2022-10-16T05:26:34;4.53;;;1.65;;
49728;SDS011;35617;50.714;7.114;2022-10-16T05:28:59;3.88;;;1.63;;
49728;SDS011;35617;50.714;7.114;2022-10-16T05:31:25;4.90;;;1.73;;
49728;SDS011;35617;50.714;7.114;2022-10-16T05:33:51;4.35;;;1.35;;
49728;SDS011;35617;50.714;7.114;2022-10-16T05:36:16;4.75;;;1.77;;
49728;SDS011;35617;50.714;7.114;2022-10-16T05:38:43;3.53;;;1.30;;
49728;SDS011;35617;50.714;7.114;2022-10-16T05:41:09;3.88;;;1.70;;
49728;SDS011;35617;50.714;7.114;2022-10-16T05:43:34;4.88;;;1.30;;
49728;SDS011;35617;50.714;7.114;2022-10-16T05:46:01;5.15;;;1.85;;
49728;SDS011;35617;50.714;7.114;2022-10-16T05:48:28;4.25;;;1.70;;
49728;SDS011;35617;50.714;7.114;2022-10-16T05:51:01;3.67;;;1.70;;
49728;SDS011;35617;50.714;7.114;2022-10-16T05:53:29;5.28;;;1.77;;
49728;SDS011;35617;50.714;7.114;2022-10-16T05:55:56;4.80;;;1.60;;
49728;SDS011;35617;50.714;7.114;2022-10-16T05:58:22;5.65;;;1.90;;
49728;SDS011;35617;50.714;7.114;2022-10-16T06:00:54;4.40;;;1.67;;
49728;SDS011;35617;50.714;7.114;2022-10-16T06:03:20;5.78;;;2.33;;
49728;SDS011;35617;50.714;7.114;2022-10-16T06:05:46;4.38;;;2.00;;
49728;SDS011;35617;50.714;7.114;2022-10-16T06:08:11;5.30;;;2.20;;
49728;SDS011;35617;50.714;7.114;2022-10-16T06:10:37;5.90;;;2.10;;
49728;SDS011;35617;50.714;7.114;2022-10-16T06:13:02;5.00;;;2.15;;
49728;SDS011;35617;50.714;7.114;2022-10-16T06:15:28;4.70;;;2.13;;
49728;SDS011;35617;50.714;7.114;2022-10-16T06:17:54;6.07;;;2.63;;
49728;SDS011;35617;50.714;7.114;2022-10-16T06:20:20;6.78;;;2.25;;
49728;SDS011;35617;50.714;7.114;2022-10-16T06:22:45;4.68;;;2.30;;
49728;SDS011;35617;50.714;7.114;2022-10-16T06:25:11;4.65;;;2.55;;
49728;SDS011;35617;50.714;7.114;2022-10-16T06:27:38;6.05;;;2.40;;
49728;SDS011;35617;50.714;7.114;2022-10-16T06:30:05;4.55;;;2.15;;
49728;SDS011;35617;50.714;7.114;2022-10-16T06:32:31;5.28;;;2.30;;
49728;SDS011;35617;50.714;7.114;2022-10-16T06:34:57;5.93;;;2.70;;
49728;SDS011;35617;50.714;7.114;2022-10-16T06:37:22;6.10;;;3.30;;
49728;SDS011;35617;50.714;7.114;2022-10-16T06:39:49;5.68;;;2.75;;
49728;SDS011;35617;50.714;7.114;2022-10-16T06:42:17;5.20;;;2.67;;
49728;SDS011;35617;50.714;7.114;2022-10-16T06:44:42;4.50;;;2.70;;
49728;SDS011;35617;50.714;7.114;2022-10-16T06:47:08;5.47;;;2.80;;
49728;SDS011;35617;50.714;7.114;2022-10-16T06:49:34;4.45;;;2.60;;
49728;SDS011;35617;50.714;7.114;2022-10-16T06:52:00;6.72;;;2.70;;
49728;SDS011;35617;50.714;7.114;2022-10-16T06:54:26;6.13;;;2.92;;
49728;SDS011;35617;50.714;7.114;2022-10-16T06:56:52;5.85;;;2.97;;
49728;SDS011;35617;50.714;7.114;2022-10-16T06:59:19;6.00;;;3.00;;
49728;SDS011;35617;50.714;7.114;2022-10-16T07:01:45;7.82;;;2.67;;
49728;SDS011;35617;50.714;7.114;2022-10-16T07:04:10;5.85;;;3.20;;
49728;SDS011;35617;50.714;7.114;2022-10-16T07:06:36;6.68;;;2.97;;
49728;SDS011;35617;50.714;7.114;2022-10-16T07:09:06;5.93;;;2.97;;
49728;SDS011;35617;50.714;7.114;2022-10-16T07:11:33;7.38;;;3.55;;
49728;SDS011;35617;50.714;7.114;2022-10-16T07:13:59;7.50;;;3.17;;
49728;SDS011;35617;50.714;7.114;2022-10-16T07:16:26;5.53;;;3.22;;
49728;SDS011;35617;50.714;7.114;2022-10-16T07:18:57;5.38;;;3.03;;
49728;SDS011;35617;50.714;7.114;2022-10-16T07:21:25;8.20;;;3.00;;
49728;SDS011;35617;50.714;7.114;2022-10-16T07:23:56;6.03;;;3.30;;
49728;SDS011;35617;50.714;7.114;2022-10-16T07:26:24;5.57;;;3.17;;
49728;SDS011;35617;50.714;7.114;2022-10-16T07:28:51;4.88;;;2.97;;
49728;SDS011;35617;50.714;7.114;2022-10-16T07:31:17;7.15;;;3.20;;
49728;SDS011;35617;50.714;7.114;2022-10-16T07:33:44;6.93;;;2.95;;
49728;SDS011;35617;50.714;7.114;2022-10-16T07:36:12;6.80;;;3.05;;
49728;SDS011;35617;50.714;7.114;2022-10-16T07:38:39;6.35;;;3.15;;
49728;SDS011;35617;50.714;7.114;2022-10-16T07:41:05;6.60;;;3.13;;
49728;SDS011;35617;50.714;7.114;2022-10-16T07:43:32;5.25;;;3.20;;
49728;SDS011;35617;50.714;7.114;2022-10-16T07:45:58;6.82;;;2.80;;
49728;SDS011;35617;50.714;7.114;2022-10-16T07:48:26;6.07;;;2.72;;
49728;SDS011;35617;50.714;7.114;2022-10-16T07:50:56;5.22;;;3.00;;
49728;SDS011;35617;50.714;7.114;2022-10-16T07:53:25;7.70;;;2.85;;
49728;SDS011;35617;50.714;7.114;2022-10-16T07:55:51;4.82;;;2.72;;
49728;SDS011;35617;50.714;7.114;2022-10-16T07:58:17;6.70;;;2.60;;
49728;SDS011;35617;50.714;7.114;2022-10-16T08:00:42;5.63;;;2.60;;
49728;SDS011;35617;50.714;7.114;2022-10-16T08:03:08;6.35;;;2.50;;
49728;SDS011;35617;50.714;7.114;2022-10-16T08:05:34;5.70;;;2.78;;
49728;SDS011;35617;50.714;7.114;2022-10-16T08:08:00;4.80;;;2.20;;
49728;SDS011;35617;50.714;7.114;2022-10-16T08:10:28;6.43;;;2.50;;
49728;SDS011;35617;50.714;7.114;2022-10-16T08:12:54;5.05;;;2.40;;
49728;SDS011;35617;50.714;7.114;2022-10-16T08:15:20;9.43;;;2.50;;
49728;SDS011;35617;50.714;7.114;2022-10-16T08:17:56;5.22;;;2.65;;
49728;SDS011;35617;50.714;7.114;2022-10-16T08:20:27;5.30;;;2.40;;
49728;SDS011;35617;50.714;7.114;2022-10-16T08:22:53;6.22;;;2.67;;
49728;SDS011;35617;50.714;7.114;2022-10-16T08:25:20;4.32;;;2.10;;
49728;SDS011;35617;50.714;7.114;2022-10-16T08:27:46;6.50;;;2.30;;
49728;SDS011;35617;50.714;7.114;2022-10-16T08:30:12;4.85;;;2.08;;
49728;SDS011;35617;50.714;7.114;2022-10-16T08:32:38;5.82;;;2.20;;
49728;SDS011;35617;50.714;7.114;2022-10-16T08:35:04;3.50;;;1.90;;
49728;SDS011;35617;50.714;7.114;2022-10-16T08:37:30;5.85;;;1.75;;
49728;SDS011;35617;50.714;7.114;2022-10-16T08:39:57;5.05;;;1.80;;
49728;SDS011;35617;50.714;7.114;2022-10-16T08:50:38;5.05;;;1.50;;
49728;SDS011;35617;50.714;7.114;2022-10-16T08:53:05;4.55;;;1.33;;
49728;SDS011;35617;50.714;7.114;2022-10-16T08:58:15;3.75;;;1.40;;
49728;SDS011;35617;50.714;7.114;2022-10-16T09:00:43;3.72;;;1.17;;
49728;SDS011;35617;50.714;7.114;2022-10-16T09:05:52;3.50;;;1.10;;
49728;SDS011;35617;50.714;7.114;2022-10-16T09:10:59;3.15;;;0.90;;
49728;SDS011;35617;50.714;7.114;2022-10-16T09:16:35;2.42;;;0.65;;
49728;SDS011;35617;50.714;7.114;2022-10-16T09:21:43;3.03;;;0.80;;
49728;SDS011;35617;50.714;7.114;2022-10-16T09:24:14;3.67;;;0.95;;
49728;SDS011;35617;50.714;7.114;2022-10-16T09:26:42;3.20;;;0.80;;
49728;SDS011;35617;50.714;7.114;2022-10-16T09:29:12;2.22;;;0.60;;
49728;SDS011;35617;50.714;7.114;2022-10-16T09:31:42;2.90;;;0.85;;
49728;SDS011;35617;50.714;7.114;2022-10-16T09:34:20;3.20;;;0.68;;
49728;SDS011;35617;50.714;7.114;2022-10-16T09:36:57;2.50;;;0.70;;
49728;SDS011;35617;50.714;7.114;2022-10-16T09:39:24;3.65;;;1.15;;
49728;SDS011;35617;50.714;7.114;2022-10-16T09:41:50;2.95;;;0.90;;
49728;SDS011;35617;50.714;7.114;2022-10-16T09:44:21;3.20;;;0.70;;
49728;SDS011;35617;50.714;7.114;2022-10-16T09:47:05;2.17;;;0.60;;
49728;SDS011;35617;50.714;7.114;2022-10-16T09:49:49;3.38;;;0.60;;
49728;SDS011;35617;50.714;7.114;2022-10-16T09:52:20;4.05;;;0.77;;
49728;SDS011;35617;50.714;7.114;2022-10-16T09:54:53;3.40;;;1.00;;
49728;SDS011;35617;50.714;7.114;2022-10-16T09:57:21;4.13;;;0.82;;
49728;SDS011;35617;50.714;7.114;2022-10-16T09:59:51;2.42;;;0.60;;
49728;SDS011;35617;50.714;7.114;2022-10-16T10:02:19;2.70;;;0.57;;
49728;SDS011;35617;50.714;7.114;2022-10-16T10:04:53;2.95;;;0.70;;
49728;SDS011;35617;50.714;7.114;2022-10-16T10:07:36;2.80;;;0.60;;
49728;SDS011;35617;50.714;7.114;2022-10-16T10:10:18;1.92;;;0.55;;
49728;SDS011;35617;50.714;7.114;2022-10-16T10:12:46;3.28;;;0.88;;
49728;SDS011;35617;50.714;7.114;2022-10-16T10:15:12;3.45;;;0.80;;
49728;SDS011;35617;50.714;7.114;2022-10-16T10:17:45;3.03;;;0.60;;
49728;SDS011;35617;50.714;7.114;2022-10-16T10:22:54;2.83;;;0.68;;
49728;SDS011;35617;50.714;7.114;2022-10-16T10:25:36;2.63;;;0.73;;
49728;SDS011;35617;50.714;7.114;2022-10-16T10:31:03;2.95;;;0.68;;
49728;SDS011;35617;50.714;7.114;2022-10-16T10:50:22;3.33;;;0.63;;
49728;SDS011;35617;50.714;7.114;2022-10-16T11:03:41;1.85;;;0.52;;
49728;SDS011;35617;50.714;7.114;2022-10-16T11:06:32;2.30;;;0.60;;
49728;SDS011;35617;50.714;7.114;2022-10-16T11:09:06;3.10;;;0.93;;
49728;SDS011;35617;50.714;7.114;2022-10-16T11:11:41;2.92;;;0.75;;
49728;SDS011;35617;50.714;7.114;2022-10-16T11:14:14;2.03;;;0.57;;
49728;SDS011;35617;50.714;7.114;2022-10-16T11:17:02;2.38;;;0.70;;
49728;SDS011;35617;50.714;7.114;2022-10-16T11:19:49;2.25;;;0.60;;
49728;SDS011;35617;50.714;7.114;2022-10-16T11:24:59;2.88;;;0.80;;
49728;SDS011;35617;50.714;7.114;2022-10-16T11:27:47;2.08;;;0.50;;
49728;SDS011;35617;50.714;7.114;2022-10-16T11:30:22;3.13;;;0.65;;
49728;SDS011;35617;50.714;7.114;2022-10-16T11:38:09;3.92;;;0.60;;
49728;SDS011;35617;50.714;7.114;2022-10-16T11:40:39;3.10;;;0.60;;
49728;SDS011;35617;50.714;7.114;2022-10-16T11:43:19;2.17;;;0.55;;
49728;SDS011;35617;50.714;7.114;2022-10-16T11:45:51;2.35;;;0.50;;
49728;SDS011;35617;50.714;7.114;2022-10-16T11:56:13;2.50;;;0.70;;
49728;SDS011;35617;50.714;7.114;2022-10-16T12:01:28;3.70;;;0.80;;
49728;SDS011;35617;50.714;7.114;2022-10-16T12:04:04;2.58;;;0.60;;
49728;SDS011;35617;50.714;7.114;2022-10-16T12:06:52;3.85;;;0.80;;
49728;SDS011;35617;50.714;7.114;2022-10-16T12:09:32;3.20;;;0.80;;
49728;SDS011;35617;50.714;7.114;2022-10-16T12:12:01;2.70;;;0.70;;
49728;SDS011;35617;50.714;7.114;2022-10-16T12:14:39;3.28;;;0.90;;
49728;SDS011;35617;50.714;7.114;2022-10-16T12:19:56;2.00;;;0.55;;
49728;SDS011;35617;50.714;7.114;2022-10-16T12:22:24;2.90;;;0.50;;
49728;SDS011;35617;50.714;7.114;2022-10-16T12:24:52;2.72;;;0.70;;
49728;SDS011;35617;50.714;7.114;2022-10-16T12:27:31;2.97;;;0.60;;
49728;SDS011;35617;50.714;7.114;2022-10-16T12:29:59;2.15;;;0.50;;
49728;SDS011;35617;50.714;7.114;2022-10-16T12:34:57;3.70;;;0.70;;
49728;SDS011;35617;50.714;7.114;2022-10-16T12:37:24;2.67;;;0.70;;
49728;SDS011;35617;50.714;7.114;2022-10-16T12:39:53;2.97;;;0.60;;
49728;SDS011;35617;50.714;7.114;2022-10-16T12:44:48;2.63;;;0.73;;
49728;SDS011;35617;50.714;7.114;2022-10-16T12:47:34;2.47;;;0.65;;
49728;SDS011;35617;50.714;7.114;2022-10-16T12:50:02;3.35;;;0.60;;
49728;SDS011;35617;50.714;7.114;2022-10-16T12:55:02;3.20;;;0.70;;
49728;SDS011;35617;50.714;7.114;2022-10-16T12:57:39;4.30;;;0.70;;
49728;SDS011;35617;50.714;7.114;2022-10-16T13:05:48;2.83;;;0.60;;
49728;SDS011;35617;50.714;7.114;2022-10-16T13:11:19;2.00;;;0.60;;
49728;SDS011;35617;50.714;7.114;2022-10-16T13:24:48;2.17;;;0.60;;
49728;SDS011;35617;50.714;7.114;2022-10-16T13:27:26;2.53;;;0.60;;
49728;SDS011;35617;50.714;7.114;2022-10-16T13:30:22;2.00;;;0.50;;
49728;SDS011;35617;50.714;7.114;2022-10-16T13:32:53;2.90;;;0.60;;
49728;SDS011;35617;50.714;7.114;2022-10-16T13:35:52;1.77;;;0.50;;
49728;SDS011;35617;50.714;7.114;2022-10-16T13:38:19;2.22;;;0.70;;
49728;SDS011;35617;50.714;7.114;2022-10-16T13:41:03;2.53;;;0.65;;
49728;SDS011;35617;50.714;7.114;2022-10-16T13:43:47;1.77;;;0.45;;
49728;SDS011;35617;50.714;7.114;2022-10-16T13:46:20;2.65;;;0.50;;
49728;SDS011;35617;50.714;7.114;2022-10-16T13:51:57;1.90;;;0.57;;
49728;SDS011;35617;50.714;7.114;2022-10-16T13:54:27;2.10;;;0.60;;
49728;SDS011;35617;50.714;7.114;2022-10-16T13:56:55;2.47;;;0.50;;
49728;SDS011;35617;50.714;7.114;2022-10-16T13:59:25;1.92;;;0.47;;
49728;SDS011;35617;50.714;7.114;2022-10-16T14:01:53;1.58;;;0.40;;
49728;SDS011;35617;50.714;7.114;2022-10-16T14:04:22;4.00;;;0.70;;
49728;SDS011;35617;50.714;7.114;2022-10-16T14:06:50;1.90;;;0.55;;
49728;SDS011;35617;50.714;7.114;2022-10-16T14:11:52;2.42;;;0.70;;
49728;SDS011;35617;50.714;7.114;2022-10-16T14:17:15;3.40;;;0.70;;
49728;SDS011;35617;50.714;7.114;2022-10-16T14:19:45;2.38;;;0.52;;
49728;SDS011;35617;50.714;7.114;2022-10-16T14:22:32;2.53;;;0.70;;
49728;SDS011;35617;50.714;7.114;2022-10-16T14:24:59;2.28;;;0.63;;
49728;SDS011;35617;50.714;7.114;2022-10-16T14:27:30;2.67;;;0.75;;
49728;SDS011;35617;50.714;7.114;2022-10-16T14:30:17;3.50;;;0.90;;
49728;SDS011;35617;50.714;7.114;2022-10-16T14:32:56;2.70;;;0.90;;
49728;SDS011;35617;50.714;7.114;2022-10-16T14:37:55;3.97;;;1.00;;
49728;SDS011;35617;50.714;7.114;2022-10-16T14:40:23;4.63;;;1.00;;
49728;SDS011;35617;50.714;7.114;2022-10-16T14:43:01;3.28;;;1.05;;
49728;SDS011;35617;50.714;7.114;2022-10-16T14:45:28;3.10;;;0.80;;
49728;SDS011;35617;50.714;7.114;2022-10-16T14:48:03;3.42;;;1.10;;
49728;SDS011;35617;50.714;7.114;2022-10-16T14:50:31;3.45;;;1.00;;
49728;SDS011;35617;50.714;7.114;2022-10-16T14:52:58;2.20;;;0.70;;
49728;SDS011;35617;50.714;7.114;2022-10-16T14:55:24;3.72;;;0.80;;
49728;SDS011;35617;50.714;7.114;2022-10-16T14:57:50;3.22;;;0.90;;
49728;SDS011;35617;50.714;7.114;2022-10-16T15:00:20;3.00;;;0.88;;
49728;SDS011;35617;50.714;7.114;2022-10-16T15:02:49;3.38;;;1.02;;
49728;SDS011;35617;50.714;7.114;2022-10-16T15:05:17;2.92;;;0.80;;
49728;SDS011;35617;50.714;7.114;2022-10-16T15:07:48;3.22;;;0.88;;
49728;SDS011;35617;50.714;7.114;2022-10-16T15:10:14;2.47;;;0.93;;
49728;SDS011;35617;50.714;7.114;2022-10-16T15:12:42;2.92;;;0.82;;
49728;SDS011;35617;50.714;7.114;2022-10-16T15:17:52;3.65;;;1.10;;
49728;SDS011;35617;50.714;7.114;2022-10-16T15:20:20;4.00;;;1.02;;
49728;SDS011;35617;50.714;7.114;2022-10-16T15:22:46;3.25;;;1.23;;
49728;SDS011;35617;50.714;7.114;2022-10-16T15:25:23;3.78;;;1.60;;
49728;SDS011;35617;50.714;7.114;2022-10-16T15:28:09;3.30;;;1.20;;
49728;SDS011;35617;50.714;7.114;2022-10-16T15:30:36;5.05;;;1.23;;
49728;SDS011;35617;50.714;7.114;2022-10-16T15:33:03;4.00;;;1.13;;
49728;SDS011;35617;50.714;7.114;2022-10-16T15:35:29;3.95;;;1.30;;
49728;SDS011;35617;50.714;7.114;2022-10-16T15:37:55;5.15;;;1.90;;
49728;SDS011;35617;50.714;7.114;2022-10-16T15:40:21;3.80;;;1.35;;
49728;SDS011;35617;50.714;7.114;2022-10-16T15:42:47;5.47;;;1.40;;
49728;SDS011;35617;50.714;7.114;2022-10-16T15:45:14;5.00;;;1.15;;
49728;SDS011;35617;50.714;7.114;2022-10-16T15:47:41;3.30;;;1.10;;
49728;SDS011;35617;50.714;7.114;2022-10-16T15:50:08;5.18;;;1.20;;
49728;SDS011;35617;50.714;7.114;2022-10-16T15:52:36;3.75;;;0.90;;
49728;SDS011;35617;50.714;7.114;2022-10-16T15:55:01;3.63;;;1.30;;
49728;SDS011;35617;50.714;7.114;2022-10-16T15:57:28;4.57;;;1.55;;
49728;SDS011;35617;50.714;7.114;2022-10-16T15:59:54;4.38;;;1.80;;
49728;SDS011;35617;50.714;7.114;2022-10-16T16:02:20;3.83;;;2.03;;
49728;SDS011;35617;50.714;7.114;2022-10-16T16:04:45;5.72;;;1.80;;
49728;SDS011;35617;50.714;7.114;2022-10-16T16:07:11;3.53;;;1.58;;
49728;SDS011;35617;50.714;7.114;2022-10-16T16:09:36;4.20;;;1.17;;
49728;SDS011;35617;50.714;7.114;2022-10-16T16:12:02;3.35;;;1.20;;
49728;SDS011;35617;50.714;7.114;2022-10-16T16:14:28;5.00;;;1.25;;
49728;SDS011;35617;50.714;7.114;2022-10-16T16:16:54;5.55;;;1.33;;
49728;SDS011;35617;50.714;7.114;2022-10-16T16:19:20;3.95;;;1.30;;
49728;SDS011;35617;50.714;7.114;2022-10-16T16:21:46;4.40;;;1.30;;
49728;SDS011;35617;50.714;7.114;2022-10-16T16:24:15;4.65;;;1.48;;
49728;SDS011;35617;50.714;7.114;2022-10-16T16:26:41;5.18;;;1.50;;
49728;SDS011;35617;50.714;7.114;2022-10-16T16:29:12;4.00;;;1.33;;
49728;SDS011;35617;50.714;7.114;2022-10-16T16:31:39;5.97;;;1.92;;
49728;SDS011;35617;50.714;7.114;2022-10-16T16:34:05;5.30;;;1.77;;
49728;SDS011;35617;50.714;7.114;2022-10-16T16:36:31;4.93;;;1.60;;
49728;SDS011;35617;50.714;7.114;2022-10-16T16:38:57;5.00;;;1.35;;
49728;SDS011;35617;50.714;7.114;2022-10-16T16:41:25;4.22;;;1.40;;
49728;SDS011;35617;50.714;7.114;2022-10-16T16:43:52;7.50;;;4.88;;
49728;SDS011;35617;50.714;7.114;2022-10-16T16:46:18;4.20;;;1.80;;
49728;SDS011;35617;50.714;7.114;2022-10-16T16:48:45;3.65;;;1.45;;
49728;SDS011;35617;50.714;7.114;2022-10-16T16:51:12;4.25;;;1.52;;
49728;SDS011;35617;50.714;7.114;2022-10-16T16:53:40;3.50;;;1.35;;
49728;SDS011;35617;50.714;7.114;2022-10-16T16:56:15;4.30;;;1.52;;
49728;SDS011;35617;50.714;7.114;2022-10-16T16:58:44;3.60;;;1.60;;
49728;SDS011;35617;50.714;7.114;2022-10-16T17:01:11;4.07;;;1.70;;
49728;SDS011;35617;50.714;7.114;2022-10-16T17:03:36;4.45;;;1.58;;
49728;SDS011;35617;50.714;7.114;2022-10-16T17:06:03;4.53;;;1.77;;
49728;SDS011;35617;50.714;7.114;2022-10-16T17:08:31;4.43;;;1.63;;
49728;SDS011;35617;50.714;7.114;2022-10-16T17:10:57;3.67;;;1.55;;
49728;SDS011;35617;50.714;7.114;2022-10-16T17:13:27;5.03;;;1.58;;
49728;SDS011;35617;50.714;7.114;2022-10-16T17:15:54;3.30;;;1.20;;